Pagrindinis puslapis
METAR-TAF:

METAR-TAF

Oro uostai :

Sharurah, Saudo Arabija

platuma: 17-28N, ilguma: 047-07E, Aukštis: 720 m

Dabartinis oras

Ataskaita buvo paskelbta 32 minutes, ne 13:00 UTC
Vėjas 10 kt iš Rytų/Šiaurės Rytų
Temperatūra 28°C
Drėgmė 15%
Slėgis 1015 hPa
Matomumas: 7000 m
Giedras dangus

METAR: OESH 281300Z 06010KT 7000 SKC 28/M01 Q1015 NOSIG

Laikas: 16:32 (13:32 UTC)

Prognozė

Prognozė galioja nuo 28 metu 12 UTC su 29 metu 18 UTC
Vėjas 12 kt iš Rytų/Šiaurės Rytų
Matomumas: 7000 m
Laikinai
nuo 28 metu 12 UTC su 28 metu 20 UTC
Matomumas: 3000 m
dulkės

TAF: OESH 2812/2918 07012KT 7000 NSC TEMPO 2812/2820 3000 DU

Orai ataskaitas ir orų prognozės (METAR, TAF).

turimą stotys yra geltonos ir raudonos taškus žemėlapyje.

Perkelti pele per norėdami pamatyti stoties vardą.

Tada spustelėkite, norėdami matyti oro stebėjimo ir prognozės.

Norėdami pakeisti žemėlapį: spustelėkite ant žalios mygtukų su juodo kryžiaus žemyn,; žalią mygtuką su brūkšneliu, jei norite nutolinti; arba žalių rodyklių gretimoms žemėlapius.


METAR-TAF: